sensor_id;sensor_type;location;lat;lon;timestamp;pressure;altitude;pressure_sealevel;temperature;humidity
50087;BME280;35967;50.718;7.050;2023-03-23T00:06:40;99752.81;;;13.74;71.02
50087;BME280;35967;50.718;7.050;2023-03-23T00:16:44;99748.78;;;13.68;71.86
50087;BME280;35967;50.718;7.050;2023-03-23T00:26:48;99748.13;;;13.65;72.43
50087;BME280;35967;50.718;7.050;2023-03-23T00:36:54;99737.09;;;13.61;72.46
50087;BME280;35967;50.718;7.050;2023-03-23T00:46:57;99724.91;;;13.63;72.05
50087;BME280;35967;50.718;7.050;2023-03-23T00:57:01;99726.06;;;13.57;71.25
50087;BME280;35967;50.718;7.050;2023-03-23T01:07:03;99713.34;;;13.53;71.42
50087;BME280;35967;50.718;7.050;2023-03-23T01:17:07;99708.78;;;13.58;71.35
50087;BME280;35967;50.718;7.050;2023-03-23T01:27:09;99679.66;;;13.72;70.27
50087;BME280;35967;50.718;7.050;2023-03-23T01:37:13;99683.69;;;13.60;70.37
50087;BME280;35967;50.718;7.050;2023-03-23T01:47:20;99701.16;;;13.55;70.62
50087;BME280;35967;50.718;7.050;2023-03-23T01:57:30;99714.72;;;13.43;70.93
50087;BME280;35967;50.718;7.050;2023-03-23T02:07:35;99725.47;;;13.33;73.50
50087;BME280;35967;50.718;7.050;2023-03-23T02:17:46;99722.19;;;13.30;74.70
50087;BME280;35967;50.718;7.050;2023-03-23T02:28:08;99691.72;;;13.19;75.55
50087;BME280;35967;50.718;7.050;2023-03-23T02:38:23;99686.63;;;13.17;75.80
50087;BME280;35967;50.718;7.050;2023-03-23T02:48:30;99669.41;;;12.99;78.01
50087;BME280;35967;50.718;7.050;2023-03-23T02:58:34;99688.19;;;12.66;84.82
50087;BME280;35967;50.718;7.050;2023-03-23T03:08:41;99669.53;;;12.59;84.10
50087;BME280;35967;50.718;7.050;2023-03-23T03:18:52;99612.50;;;12.46;84.92
50087;BME280;35967;50.718;7.050;2023-03-23T03:28:57;99610.28;;;12.38;85.21
50087;BME280;35967;50.718;7.050;2023-03-23T03:39:05;99664.25;;;12.62;84.48
50087;BME280;35967;50.718;7.050;2023-03-23T03:49:10;99713.50;;;12.57;84.47
50087;BME280;35967;50.718;7.050;2023-03-23T03:59:16;99695.16;;;12.63;84.03
50087;BME280;35967;50.718;7.050;2023-03-23T04:09:43;99662.66;;;12.59;83.94
50087;BME280;35967;50.718;7.050;2023-03-23T04:19:50;99672.13;;;12.59;83.99
50087;BME280;35967;50.718;7.050;2023-03-23T04:29:52;99686.72;;;12.60;84.37
50087;BME280;35967;50.718;7.050;2023-03-23T04:40:16;99677.38;;;12.57;84.80
50087;BME280;35967;50.718;7.050;2023-03-23T04:50:29;99689.50;;;12.55;84.59
50087;BME280;35967;50.718;7.050;2023-03-23T05:00:43;99679.34;;;12.52;84.75
50087;BME280;35967;50.718;7.050;2023-03-23T05:10:53;99682.97;;;12.48;84.48
50087;BME280;35967;50.718;7.050;2023-03-23T05:21:00;99692.31;;;12.51;84.19
50087;BME280;35967;50.718;7.050;2023-03-23T05:31:07;99681.34;;;12.45;84.49
50087;BME280;35967;50.718;7.050;2023-03-23T05:41:11;99699.22;;;12.50;83.23
50087;BME280;35967;50.718;7.050;2023-03-23T05:51:16;99699.78;;;12.57;82.43
50087;BME280;35967;50.718;7.050;2023-03-23T06:01:21;99704.56;;;12.65;80.09
50087;BME280;35967;50.718;7.050;2023-03-23T06:11:25;99712.81;;;12.73;76.89
50087;BME280;35967;50.718;7.050;2023-03-23T06:21:49;99705.84;;;12.75;75.21
50087;BME280;35967;50.718;7.050;2023-03-23T06:32:04;99728.56;;;12.86;74.92
50087;BME280;35967;50.718;7.050;2023-03-23T06:42:10;99729.81;;;12.96;74.30
50087;BME280;35967;50.718;7.050;2023-03-23T06:52:20;99761.56;;;12.98;75.03
50087;BME280;35967;50.718;7.050;2023-03-23T07:02:25;99763.66;;;13.09;75.30
50087;BME280;35967;50.718;7.050;2023-03-23T07:12:28;99772.13;;;13.13;75.03
50087;BME280;35967;50.718;7.050;2023-03-23T07:22:33;99768.94;;;13.25;72.91
50087;BME280;35967;50.718;7.050;2023-03-23T07:32:44;99766.50;;;13.41;71.85
50087;BME280;35967;50.718;7.050;2023-03-23T07:42:52;99748.00;;;13.49;69.99
50087;BME280;35967;50.718;7.050;2023-03-23T07:53:07;99749.34;;;13.57;68.65
50087;BME280;35967;50.718;7.050;2023-03-23T08:03:12;99758.28;;;13.68;68.17
50087;BME280;35967;50.718;7.050;2023-03-23T08:13:25;99753.56;;;13.76;67.76
50087;BME280;35967;50.718;7.050;2023-03-23T08:23:54;99754.19;;;13.81;67.40
50087;BME280;35967;50.718;7.050;2023-03-23T08:34:17;99769.50;;;13.86;67.14
50087;BME280;35967;50.718;7.050;2023-03-23T08:44:41;99769.09;;;13.94;66.74
50087;BME280;35967;50.718;7.050;2023-03-23T08:55:13;99763.44;;;14.03;66.83
50087;BME280;35967;50.718;7.050;2023-03-23T09:05:37;99781.38;;;14.06;66.55
50087;BME280;35967;50.718;7.050;2023-03-23T09:16:00;99778.34;;;14.15;65.59
50087;BME280;35967;50.718;7.050;2023-03-23T09:26:04;99793.13;;;14.13;65.00
50087;BME280;35967;50.718;7.050;2023-03-23T09:36:08;99791.13;;;14.52;66.09
50087;BME280;35967;50.718;7.050;2023-03-23T09:46:25;99804.50;;;14.44;66.21
50087;BME280;35967;50.718;7.050;2023-03-23T09:56:30;99820.00;;;14.62;67.54
50087;BME280;35967;50.718;7.050;2023-03-23T10:06:35;99809.72;;;14.43;66.92
50087;BME280;35967;50.718;7.050;2023-03-23T10:16:48;99798.69;;;14.39;68.31
50087;BME280;35967;50.718;7.050;2023-03-23T10:27:03;99818.47;;;14.58;67.25
50087;BME280;35967;50.718;7.050;2023-03-23T10:37:13;99836.34;;;14.80;67.85
50087;BME280;35967;50.718;7.050;2023-03-23T10:47:18;99829.72;;;14.57;68.53
50087;BME280;35967;50.718;7.050;2023-03-23T10:57:47;99822.19;;;14.52;69.89
50087;BME280;35967;50.718;7.050;2023-03-23T11:07:53;99830.81;;;14.70;69.96
50087;BME280;35967;50.718;7.050;2023-03-23T11:17:57;99821.13;;;14.90;69.07
50087;BME280;35967;50.718;7.050;2023-03-23T11:28:02;99826.22;;;14.91;68.48
50087;BME280;35967;50.718;7.050;2023-03-23T11:38:05;99820.22;;;14.91;67.48
50087;BME280;35967;50.718;7.050;2023-03-23T11:48:18;99813.06;;;15.42;65.24
50087;BME280;35967;50.718;7.050;2023-03-23T11:58:23;99812.94;;;15.13;65.59
50087;BME280;35967;50.718;7.050;2023-03-23T12:08:47;99816.78;;;15.38;64.35
50087;BME280;35967;50.718;7.050;2023-03-23T12:19:22;99811.63;;;15.53;63.90
50087;BME280;35967;50.718;7.050;2023-03-23T12:29:41;99809.03;;;15.69;61.90
50087;BME280;35967;50.718;7.050;2023-03-23T12:39:58;99807.97;;;15.57;62.02
50087;BME280;35967;50.718;7.050;2023-03-23T12:50:15;99801.84;;;15.58;62.44
50087;BME280;35967;50.718;7.050;2023-03-23T13:00:24;99811.91;;;15.48;62.39
50087;BME280;35967;50.718;7.050;2023-03-23T13:10:57;99823.34;;;15.60;62.17
50087;BME280;35967;50.718;7.050;2023-03-23T13:21:08;99820.75;;;15.60;62.38
50087;BME280;35967;50.718;7.050;2023-03-23T13:31:16;99793.91;;;15.91;60.76
50087;BME280;35967;50.718;7.050;2023-03-23T13:41:22;99789.66;;;16.19;60.47
50087;BME280;35967;50.718;7.050;2023-03-23T13:51:59;99792.34;;;16.03;59.41
50087;BME280;35967;50.718;7.050;2023-03-23T14:02:32;99794.22;;;16.16;60.18
50087;BME280;35967;50.718;7.050;2023-03-23T14:12:39;99793.50;;;16.28;59.87
50087;BME280;35967;50.718;7.050;2023-03-23T14:22:41;99807.06;;;16.03;60.42
50087;BME280;35967;50.718;7.050;2023-03-23T14:32:45;99780.72;;;15.95;61.12
50087;BME280;35967;50.718;7.050;2023-03-23T14:42:50;99782.06;;;16.02;60.24
50087;BME280;35967;50.718;7.050;2023-03-23T14:53:11;99778.81;;;15.98;61.40
50087;BME280;35967;50.718;7.050;2023-03-23T15:03:16;99801.34;;;16.27;60.56
50087;BME280;35967;50.718;7.050;2023-03-23T15:13:20;99796.75;;;16.17;60.30
50087;BME280;35967;50.718;7.050;2023-03-23T15:23:27;99752.88;;;16.27;59.37
50087;BME280;35967;50.718;7.050;2023-03-23T15:33:34;99724.09;;;16.16;60.34
50087;BME280;35967;50.718;7.050;2023-03-23T15:43:49;99720.03;;;16.12;59.53
50087;BME280;35967;50.718;7.050;2023-03-23T15:53:55;99727.25;;;16.06;58.08
50087;BME280;35967;50.718;7.050;2023-03-23T16:04:00;99736.53;;;16.11;58.14
50087;BME280;35967;50.718;7.050;2023-03-23T16:14:06;99737.47;;;15.95;56.10
50087;BME280;35967;50.718;7.050;2023-03-23T16:24:10;99730.22;;;16.00;54.56
50087;BME280;35967;50.718;7.050;2023-03-23T16:34:14;99733.09;;;15.96;55.08
50087;BME280;35967;50.718;7.050;2023-03-23T16:44:21;99735.50;;;15.84;56.66
50087;BME280;35967;50.718;7.050;2023-03-23T16:54:26;99736.53;;;15.66;56.55
50087;BME280;35967;50.718;7.050;2023-03-23T17:04:29;99744.78;;;15.58;57.10
50087;BME280;35967;50.718;7.050;2023-03-23T17:14:34;99769.75;;;15.44;57.58
50087;BME280;35967;50.718;7.050;2023-03-23T17:24:39;99778.78;;;15.37;58.41
50087;BME280;35967;50.718;7.050;2023-03-23T17:34:44;99772.44;;;15.27;59.00
50087;BME280;35967;50.718;7.050;2023-03-23T17:44:48;99767.78;;;15.18;59.55
50087;BME280;35967;50.718;7.050;2023-03-23T17:54:53;99772.22;;;15.16;60.08
50087;BME280;35967;50.718;7.050;2023-03-23T18:04:57;99781.50;;;15.04;60.78
50087;BME280;35967;50.718;7.050;2023-03-23T18:15:03;99770.53;;;14.98;61.62
50087;BME280;35967;50.718;7.050;2023-03-23T18:25:07;99754.25;;;14.96;62.26
50087;BME280;35967;50.718;7.050;2023-03-23T18:35:11;99732.09;;;14.91;62.92
50087;BME280;35967;50.718;7.050;2023-03-23T18:45:15;99725.09;;;14.93;62.91
50087;BME280;35967;50.718;7.050;2023-03-23T18:55:19;99740.72;;;14.91;63.11
50087;BME280;35967;50.718;7.050;2023-03-23T19:05:23;99733.94;;;14.89;63.84
50087;BME280;35967;50.718;7.050;2023-03-23T19:15:28;99716.00;;;14.86;64.10
50087;BME280;35967;50.718;7.050;2023-03-23T19:25:31;99694.41;;;14.85;64.20
50087;BME280;35967;50.718;7.050;2023-03-23T19:35:36;99681.66;;;14.82;64.47
50087;BME280;35967;50.718;7.050;2023-03-23T19:45:40;99688.91;;;14.75;65.08
50087;BME280;35967;50.718;7.050;2023-03-23T19:55:44;99686.88;;;14.64;65.43
50087;BME280;35967;50.718;7.050;2023-03-23T20:05:49;99667.84;;;14.65;65.67
50087;BME280;35967;50.718;7.050;2023-03-23T20:15:53;99661.16;;;14.61;65.80
50087;BME280;35967;50.718;7.050;2023-03-23T20:26:04;99653.00;;;14.69;66.48
50087;BME280;35967;50.718;7.050;2023-03-23T20:36:11;99631.81;;;14.61;66.84
50087;BME280;35967;50.718;7.050;2023-03-23T20:46:15;99626.72;;;14.59;67.44
50087;BME280;35967;50.718;7.050;2023-03-23T20:56:20;99611.38;;;14.56;67.64
50087;BME280;35967;50.718;7.050;2023-03-23T21:06:26;99585.47;;;14.56;68.16
50087;BME280;35967;50.718;7.050;2023-03-23T21:16:31;99596.66;;;14.57;68.63
50087;BME280;35967;50.718;7.050;2023-03-23T21:26:35;99604.41;;;14.57;68.62
50087;BME280;35967;50.718;7.050;2023-03-23T21:36:40;99601.25;;;14.67;67.96
50087;BME280;35967;50.718;7.050;2023-03-23T21:46:45;99602.34;;;14.63;67.72
50087;BME280;35967;50.718;7.050;2023-03-23T21:56:50;99596.16;;;14.66;67.98
50087;BME280;35967;50.718;7.050;2023-03-23T22:06:53;99588.78;;;14.58;68.64
50087;BME280;35967;50.718;7.050;2023-03-23T22:16:58;99579.03;;;14.63;69.26
50087;BME280;35967;50.718;7.050;2023-03-23T22:27:01;99580.19;;;14.58;70.57
50087;BME280;35967;50.718;7.050;2023-03-23T22:37:06;99561.25;;;14.57;71.53
50087;BME280;35967;50.718;7.050;2023-03-23T22:47:10;99543.38;;;14.52;72.64
50087;BME280;35967;50.718;7.050;2023-03-23T22:57:15;99531.25;;;14.53;73.01
50087;BME280;35967;50.718;7.050;2023-03-23T23:07:18;99512.63;;;14.46;73.82
50087;BME280;35967;50.718;7.050;2023-03-23T23:17:24;99490.84;;;14.34;74.76
50087;BME280;35967;50.718;7.050;2023-03-23T23:27:27;99484.97;;;14.32;75.39
50087;BME280;35967;50.718;7.050;2023-03-23T23:37:33;99466.75;;;14.34;75.62
50087;BME280;35967;50.718;7.050;2023-03-23T23:47:38;99456.75;;;14.28;76.01
50087;BME280;35967;50.718;7.050;2023-03-23T23:57:43;99427.91;;;14.34;75.86
